Chisholm Hibbing Airport
KHIB : now visible

Airfield :











YOU CAN JOIN US ON...

 
LOGIN :

Register | Disclaimer

   EN    FR    IT 

 









Legend :    VFR   Marginal VFR   IFR   Intensive IFR   Very Intensive IFR
Visi :
Ceiling :
>= 8 km
>= 3000ft
5 to 8 km
1000 to 3000 ft
1500m to 5 km
500 to 1000 ft
800 to 1500m
200 to 500 ft
< 800m
< 200 ft
Symbols :   Thunderstorms  Fog  Heavy snow  Heavy precipitations  Wind > 20 kt






- Airport Elevation : 1354 ft
- IATA code : HIB


KHIB - Chisholm Hibbing

CURRENT METAR :
  • 192253Z AUTO 00000KT 1/4SM FG VV002 01/00 A2981 RMK AO2 SLP114 T00060000

EXPIRED METARs :
  • 192153Z AUTO 00000KT 1/4SM FG OVC002 01/00 A2980 RMK AO2 SLP109 T00060000
  • 192053Z AUTO 00000KT 1/4SM FG OVC002 00/M01 A2978 RMK AO2 SLP105 T00001006 53014
  • 192016Z AUTO 00000KT 1/4SM FG OVC002 00/M01 A2977 RMK AO2 T00001006
  • 191953Z AUTO 00000KT 1/2SM FG OVC003 00/M01 A2976 RMK AO2 SLP098 T00001006

TAF KHIB
Valid from the 19 at 23:00 until the 20 at 18:00 UTC


192243Z 1923/2018 VRB03KT 1/2SM FG OVC002
FM200200 00000KT 3/4SM BR OVC004
TEMPO 2003/2007 1/2SM FZFG
FM201300 00000KT 2SM BR OVC004
FM201500 00000KT 4SM BR OVC005



MET'MAP, your aeronautical weather chart ! - Copyright ORBIFLY December 2007 - Disclaimer

ORBIFLY MET'MAP TEAM :

Programming & Development : Alexandra Zaïnal
Concept & Development : Baudouin d'Aumeries
Co-Development & Prog : Marc-Olivier Méhu
Technical & hardware support : Manuel Goepfert

Contact : metmap@orbifly.com




SOURCES & CREDITS :

   NOAA       Earth
Advisory